sensor_id;sensor_type;location;lat;lon;timestamp;temperature;humidity
254;DHT22;590;48.772;8.846;2023-06-14T00:02:19;13.50;28.00
254;DHT22;590;48.772;8.846;2023-06-14T00:04:47;13.40;28.20
254;DHT22;590;48.772;8.846;2023-06-14T00:07:18;13.30;28.50
254;DHT22;590;48.772;8.846;2023-06-14T00:09:46;13.10;29.20
254;DHT22;590;48.772;8.846;2023-06-14T00:12:14;13.00;30.70
254;DHT22;590;48.772;8.846;2023-06-14T00:14:42;13.10;31.30
254;DHT22;590;48.772;8.846;2023-06-14T00:17:10;13.20;30.20
254;DHT22;590;48.772;8.846;2023-06-14T00:19:39;13.10;30.80
254;DHT22;590;48.772;8.846;2023-06-14T00:22:07;13.00;31.00
254;DHT22;590;48.772;8.846;2023-06-14T00:24:36;12.90;31.30
254;DHT22;590;48.772;8.846;2023-06-14T00:27:05;12.80;32.90
254;DHT22;590;48.772;8.846;2023-06-14T00:29:33;12.80;33.10
254;DHT22;590;48.772;8.846;2023-06-14T00:32:02;12.80;33.10
254;DHT22;590;48.772;8.846;2023-06-14T00:34:30;12.80;34.30
254;DHT22;590;48.772;8.846;2023-06-14T00:36:59;12.70;33.80
254;DHT22;590;48.772;8.846;2023-06-14T00:39:27;12.60;34.40
254;DHT22;590;48.772;8.846;2023-06-14T00:41:55;12.70;36.00
254;DHT22;590;48.772;8.846;2023-06-14T00:44:24;12.60;37.90
254;DHT22;590;48.772;8.846;2023-06-14T00:46:52;12.60;38.30
254;DHT22;590;48.772;8.846;2023-06-14T00:49:21;12.50;38.10
254;DHT22;590;48.772;8.846;2023-06-14T00:51:49;12.50;39.10
254;DHT22;590;48.772;8.846;2023-06-14T00:54:19;12.50;38.60
254;DHT22;590;48.772;8.846;2023-06-14T00:56:47;12.30;41.30
254;DHT22;590;48.772;8.846;2023-06-14T00:59:15;12.30;42.10
254;DHT22;590;48.772;8.846;2023-06-14T01:01:43;12.30;41.80
254;DHT22;590;48.772;8.846;2023-06-14T01:04:11;12.20;41.70
254;DHT22;590;48.772;8.846;2023-06-14T01:06:43;12.20;42.60
254;DHT22;590;48.772;8.846;2023-06-14T01:09:17;12.20;43.70
254;DHT22;590;48.772;8.846;2023-06-14T01:11:53;12.30;42.20
254;DHT22;590;48.772;8.846;2023-06-14T01:14:25;12.20;41.40
254;DHT22;590;48.772;8.846;2023-06-14T01:16:55;12.20;42.20
254;DHT22;590;48.772;8.846;2023-06-14T01:19:24;12.30;43.40
254;DHT22;590;48.772;8.846;2023-06-14T01:21:55;12.30;41.50
254;DHT22;590;48.772;8.846;2023-06-14T01:24:25;12.30;40.80
254;DHT22;590;48.772;8.846;2023-06-14T01:26:59;12.20;40.70
254;DHT22;590;48.772;8.846;2023-06-14T01:29:28;12.20;41.70
254;DHT22;590;48.772;8.846;2023-06-14T01:31:59;12.20;40.90
254;DHT22;590;48.772;8.846;2023-06-14T01:34:28;12.10;42.40
254;DHT22;590;48.772;8.846;2023-06-14T01:36:56;12.00;43.90
254;DHT22;590;48.772;8.846;2023-06-14T01:39:26;12.00;44.80
254;DHT22;590;48.772;8.846;2023-06-14T01:41:55;11.90;44.20
254;DHT22;590;48.772;8.846;2023-06-14T01:44:25;11.90;44.00
254;DHT22;590;48.772;8.846;2023-06-14T01:46:54;11.80;45.90
254;DHT22;590;48.772;8.846;2023-06-14T01:49:22;11.70;46.30
254;DHT22;590;48.772;8.846;2023-06-14T01:51:50;11.60;49.40
254;DHT22;590;48.772;8.846;2023-06-14T01:54:18;11.60;49.20
254;DHT22;590;48.772;8.846;2023-06-14T01:56:47;11.50;49.40
254;DHT22;590;48.772;8.846;2023-06-14T01:59:16;11.50;50.80
254;DHT22;590;48.772;8.846;2023-06-14T02:01:44;11.50;49.90
254;DHT22;590;48.772;8.846;2023-06-14T02:04:13;11.50;50.20
254;DHT22;590;48.772;8.846;2023-06-14T02:06:41;11.40;50.60
254;DHT22;590;48.772;8.846;2023-06-14T02:09:09;11.40;50.60
254;DHT22;590;48.772;8.846;2023-06-14T02:11:37;11.30;51.10
254;DHT22;590;48.772;8.846;2023-06-14T02:14:06;11.30;52.70
254;DHT22;590;48.772;8.846;2023-06-14T02:16:37;11.40;52.00
254;DHT22;590;48.772;8.846;2023-06-14T02:19:06;11.40;52.10
254;DHT22;590;48.772;8.846;2023-06-14T02:21:34;11.40;51.50
254;DHT22;590;48.772;8.846;2023-06-14T02:24:02;11.40;51.50
254;DHT22;590;48.772;8.846;2023-06-14T02:26:30;11.40;51.70
254;DHT22;590;48.772;8.846;2023-06-14T02:28:58;11.40;50.90
254;DHT22;590;48.772;8.846;2023-06-14T02:31:28;11.20;52.00
254;DHT22;590;48.772;8.846;2023-06-14T02:33:56;11.20;52.60
254;DHT22;590;48.772;8.846;2023-06-14T02:36:24;11.10;51.90
254;DHT22;590;48.772;8.846;2023-06-14T02:38:53;11.00;52.30
254;DHT22;590;48.772;8.846;2023-06-14T02:41:21;10.90;52.30
254;DHT22;590;48.772;8.846;2023-06-14T02:43:49;10.90;52.50
254;DHT22;590;48.772;8.846;2023-06-14T02:46:17;10.80;53.50
254;DHT22;590;48.772;8.846;2023-06-14T02:48:47;10.80;55.00
254;DHT22;590;48.772;8.846;2023-06-14T02:51:15;10.80;55.20
254;DHT22;590;48.772;8.846;2023-06-14T02:53:43;10.80;56.00
254;DHT22;590;48.772;8.846;2023-06-14T02:56:11;10.80;56.50
254;DHT22;590;48.772;8.846;2023-06-14T02:58:40;10.90;56.30
254;DHT22;590;48.772;8.846;2023-06-14T03:01:08;11.00;56.30
254;DHT22;590;48.772;8.846;2023-06-14T03:03:39;11.00;55.00
254;DHT22;590;48.772;8.846;2023-06-14T03:06:09;11.00;55.60
254;DHT22;590;48.772;8.846;2023-06-14T03:08:40;11.00;55.10
254;DHT22;590;48.772;8.846;2023-06-14T03:11:08;10.90;54.00
254;DHT22;590;48.772;8.846;2023-06-14T03:13:36;10.90;54.10
254;DHT22;590;48.772;8.846;2023-06-14T03:16:05;10.80;54.60
254;DHT22;590;48.772;8.846;2023-06-14T03:18:34;10.70;54.90
254;DHT22;590;48.772;8.846;2023-06-14T03:21:03;10.70;55.50
254;DHT22;590;48.772;8.846;2023-06-14T03:23:33;10.60;56.40
254;DHT22;590;48.772;8.846;2023-06-14T03:26:01;10.60;56.70
254;DHT22;590;48.772;8.846;2023-06-14T03:28:29;10.60;58.10
254;DHT22;590;48.772;8.846;2023-06-14T03:30:56;10.60;58.10
254;DHT22;590;48.772;8.846;2023-06-14T03:33:25;10.60;57.80
254;DHT22;590;48.772;8.846;2023-06-14T03:35:53;10.60;57.60
254;DHT22;590;48.772;8.846;2023-06-14T03:38:23;10.60;57.40
254;DHT22;590;48.772;8.846;2023-06-14T03:40:52;10.60;58.20
254;DHT22;590;48.772;8.846;2023-06-14T03:43:20;10.60;58.10
254;DHT22;590;48.772;8.846;2023-06-14T03:45:48;10.60;57.60
254;DHT22;590;48.772;8.846;2023-06-14T03:48:16;10.60;58.10
254;DHT22;590;48.772;8.846;2023-06-14T03:50:44;10.50;58.00
254;DHT22;590;48.772;8.846;2023-06-14T03:53:12;10.50;58.00
254;DHT22;590;48.772;8.846;2023-06-14T03:55:40;10.50;58.10
254;DHT22;590;48.772;8.846;2023-06-14T03:58:13;10.60;59.00
254;DHT22;590;48.772;8.846;2023-06-14T04:00:41;10.60;59.00
254;DHT22;590;48.772;8.846;2023-06-14T04:03:09;10.70;58.90
254;DHT22;590;48.772;8.846;2023-06-14T04:05:40;10.80;58.40
254;DHT22;590;48.772;8.846;2023-06-14T04:08:09;11.00;58.60
254;DHT22;590;48.772;8.846;2023-06-14T04:10:37;11.10;57.50
254;DHT22;590;48.772;8.846;2023-06-14T04:13:05;11.30;56.50
254;DHT22;590;48.772;8.846;2023-06-14T04:15:35;11.60;55.20
254;DHT22;590;48.772;8.846;2023-06-14T04:18:04;12.00;52.40
254;DHT22;590;48.772;8.846;2023-06-14T04:20:32;13.00;46.60
254;DHT22;590;48.772;8.846;2023-06-14T04:23:11;14.40;39.50
254;DHT22;590;48.772;8.846;2023-06-14T04:25:40;15.90;28.40
254;DHT22;590;48.772;8.846;2023-06-14T04:28:27;17.10;20.20
254;DHT22;590;48.772;8.846;2023-06-14T04:30:57;17.80;16.50
254;DHT22;590;48.772;8.846;2023-06-14T04:33:28;18.70;13.90
254;DHT22;590;48.772;8.846;2023-06-14T04:35:56;19.80;10.10
254;DHT22;590;48.772;8.846;2023-06-14T04:38:24;20.90;7.80
254;DHT22;590;48.772;8.846;2023-06-14T04:40:54;22.00;4.40
254;DHT22;590;48.772;8.846;2023-06-14T04:43:23;23.00;2.40
254;DHT22;590;48.772;8.846;2023-06-14T04:45:53;23.60;1.10
254;DHT22;590;48.772;8.846;2023-06-14T04:48:22;24.10;1.00
254;DHT22;590;48.772;8.846;2023-06-14T04:50:51;24.90;1.00
254;DHT22;590;48.772;8.846;2023-06-14T04:53:20;25.80;1.00
254;DHT22;590;48.772;8.846;2023-06-14T04:55:49;26.40;1.00
254;DHT22;590;48.772;8.846;2023-06-14T04:58:17;26.90;1.00
254;DHT22;590;48.772;8.846;2023-06-14T05:00:45;27.20;1.00
254;DHT22;590;48.772;8.846;2023-06-14T05:03:14;27.60;1.00
254;DHT22;590;48.772;8.846;2023-06-14T05:05:44;27.60;1.00
254;DHT22;590;48.772;8.846;2023-06-14T05:08:12;28.10;1.00
254;DHT22;590;48.772;8.846;2023-06-14T05:10:40;28.30;1.00
254;DHT22;590;48.772;8.846;2023-06-14T05:13:08;28.30;1.00
254;DHT22;590;48.772;8.846;2023-06-14T05:15:37;28.40;1.00
254;DHT22;590;48.772;8.846;2023-06-14T05:18:05;28.30;1.00
254;DHT22;590;48.772;8.846;2023-06-14T05:20:36;28.00;1.00
254;DHT22;590;48.772;8.846;2023-06-14T05:23:06;27.70;1.00
254;DHT22;590;48.772;8.846;2023-06-14T05:25:34;27.00;1.00
254;DHT22;590;48.772;8.846;2023-06-14T05:28:02;26.00;1.00
254;DHT22;590;48.772;8.846;2023-06-14T05:30:30;25.10;1.00
254;DHT22;590;48.772;8.846;2023-06-14T05:33:00;24.50;1.00
254;DHT22;590;48.772;8.846;2023-06-14T05:35:28;24.10;1.00
254;DHT22;590;48.772;8.846;2023-06-14T05:37:56;23.70;1.00
254;DHT22;590;48.772;8.846;2023-06-14T05:40:26;23.40;1.00
254;DHT22;590;48.772;8.846;2023-06-14T05:42:54;23.30;1.00
254;DHT22;590;48.772;8.846;2023-06-14T05:45:21;23.20;1.00
254;DHT22;590;48.772;8.846;2023-06-14T05:47:49;23.20;1.50
254;DHT22;590;48.772;8.846;2023-06-14T05:50:18;23.20;1.70
254;DHT22;590;48.772;8.846;2023-06-14T05:52:46;23.20;1.10
254;DHT22;590;48.772;8.846;2023-06-14T05:55:16;23.30;1.40
254;DHT22;590;48.772;8.846;2023-06-14T05:57:46;23.40;1.40
254;DHT22;590;48.772;8.846;2023-06-14T06:00:15;23.60;1.30
254;DHT22;590;48.772;8.846;2023-06-14T06:02:44;23.80;1.30
254;DHT22;590;48.772;8.846;2023-06-14T06:05:14;24.00;1.00
254;DHT22;590;48.772;8.846;2023-06-14T06:07:44;24.30;1.00
254;DHT22;590;48.772;8.846;2023-06-14T06:10:12;24.60;1.00
254;DHT22;590;48.772;8.846;2023-06-14T06:12:41;24.90;1.00
254;DHT22;590;48.772;8.846;2023-06-14T06:15:10;25.30;1.00
254;DHT22;590;48.772;8.846;2023-06-14T06:17:39;25.60;1.00
254;DHT22;590;48.772;8.846;2023-06-14T06:20:22;25.90;1.00
254;DHT22;590;48.772;8.846;2023-06-14T06:22:55;26.20;1.00
254;DHT22;590;48.772;8.846;2023-06-14T06:25:23;26.60;1.00
254;DHT22;590;48.772;8.846;2023-06-14T06:27:52;26.90;1.00
254;DHT22;590;48.772;8.846;2023-06-14T06:30:22;27.10;1.00
254;DHT22;590;48.772;8.846;2023-06-14T06:32:50;27.30;1.00
254;DHT22;590;48.772;8.846;2023-06-14T06:35:18;27.70;1.00
254;DHT22;590;48.772;8.846;2023-06-14T06:37:46;28.00;1.00
254;DHT22;590;48.772;8.846;2023-06-14T06:40:14;28.30;1.00
254;DHT22;590;48.772;8.846;2023-06-14T06:42:43;28.50;1.00
254;DHT22;590;48.772;8.846;2023-06-14T06:45:11;28.70;1.00
254;DHT22;590;48.772;8.846;2023-06-14T06:47:41;29.00;1.00
254;DHT22;590;48.772;8.846;2023-06-14T06:50:09;29.20;1.00
254;DHT22;590;48.772;8.846;2023-06-14T06:52:37;29.30;1.00
254;DHT22;590;48.772;8.846;2023-06-14T06:55:06;29.00;1.00
254;DHT22;590;48.772;8.846;2023-06-14T06:57:35;28.90;1.00
254;DHT22;590;48.772;8.846;2023-06-14T07:00:04;29.00;1.00
254;DHT22;590;48.772;8.846;2023-06-14T07:02:34;28.90;1.00
254;DHT22;590;48.772;8.846;2023-06-14T07:05:04;29.00;1.00
254;DHT22;590;48.772;8.846;2023-06-14T07:07:33;29.30;1.00
254;DHT22;590;48.772;8.846;2023-06-14T07:10:01;29.50;1.00
254;DHT22;590;48.772;8.846;2023-06-14T07:12:31;29.60;1.00
254;DHT22;590;48.772;8.846;2023-06-14T07:15:03;29.60;1.00
254;DHT22;590;48.772;8.846;2023-06-14T07:17:31;29.90;1.00
254;DHT22;590;48.772;8.846;2023-06-14T07:20:01;30.40;1.00
254;DHT22;590;48.772;8.846;2023-06-14T07:22:40;30.50;1.00
254;DHT22;590;48.772;8.846;2023-06-14T07:25:09;30.70;1.00
254;DHT22;590;48.772;8.846;2023-06-14T07:27:40;30.80;1.00
254;DHT22;590;48.772;8.846;2023-06-14T07:30:09;30.90;1.00
254;DHT22;590;48.772;8.846;2023-06-14T07:32:38;31.10;1.00
254;DHT22;590;48.772;8.846;2023-06-14T07:35:07;31.20;1.00
254;DHT22;590;48.772;8.846;2023-06-14T07:37:35;31.20;1.00
254;DHT22;590;48.772;8.846;2023-06-14T07:40:06;31.00;1.00
254;DHT22;590;48.772;8.846;2023-06-14T07:42:35;30.90;1.00
254;DHT22;590;48.772;8.846;2023-06-14T07:45:04;30.40;1.00
254;DHT22;590;48.772;8.846;2023-06-14T07:47:33;30.10;1.00
254;DHT22;590;48.772;8.846;2023-06-14T07:50:01;30.10;1.00
254;DHT22;590;48.772;8.846;2023-06-14T07:52:29;29.80;1.00
254;DHT22;590;48.772;8.846;2023-06-14T07:54:57;29.40;1.00
254;DHT22;590;48.772;8.846;2023-06-14T07:57:27;28.90;1.00
254;DHT22;590;48.772;8.846;2023-06-14T07:59:55;28.70;1.00
254;DHT22;590;48.772;8.846;2023-06-14T08:02:23;28.50;1.00
254;DHT22;590;48.772;8.846;2023-06-14T08:04:52;28.30;1.00
254;DHT22;590;48.772;8.846;2023-06-14T08:07:20;28.60;1.00
254;DHT22;590;48.772;8.846;2023-06-14T08:09:48;28.80;1.00
254;DHT22;590;48.772;8.846;2023-06-14T08:12:16;28.70;1.00
254;DHT22;590;48.772;8.846;2023-06-14T08:14:46;28.60;1.00
254;DHT22;590;48.772;8.846;2023-06-14T08:17:27;28.70;1.00
254;DHT22;590;48.772;8.846;2023-06-14T08:19:55;28.80;1.00
254;DHT22;590;48.772;8.846;2023-06-14T08:22:24;28.80;1.00
254;DHT22;590;48.772;8.846;2023-06-14T08:24:52;28.60;1.00
254;DHT22;590;48.772;8.846;2023-06-14T08:27:20;28.60;1.00
254;DHT22;590;48.772;8.846;2023-06-14T08:29:50;28.70;1.00
254;DHT22;590;48.772;8.846;2023-06-14T08:32:18;28.70;1.00
254;DHT22;590;48.772;8.846;2023-06-14T08:34:46;28.50;1.00
254;DHT22;590;48.772;8.846;2023-06-14T08:37:30;28.10;1.00
254;DHT22;590;48.772;8.846;2023-06-14T08:39:58;27.90;1.00
254;DHT22;590;48.772;8.846;2023-06-14T08:42:26;28.00;1.00
254;DHT22;590;48.772;8.846;2023-06-14T08:45:05;28.10;1.00
254;DHT22;590;48.772;8.846;2023-06-14T08:47:34;28.00;1.00
254;DHT22;590;48.772;8.846;2023-06-14T08:50:08;28.00;1.00
254;DHT22;590;48.772;8.846;2023-06-14T08:52:54;27.80;1.00
254;DHT22;590;48.772;8.846;2023-06-14T08:55:24;28.10;1.00
254;DHT22;590;48.772;8.846;2023-06-14T08:57:54;28.10;1.00
254;DHT22;590;48.772;8.846;2023-06-14T09:00:28;28.00;1.00
254;DHT22;590;48.772;8.846;2023-06-14T09:02:56;28.00;1.00
254;DHT22;590;48.772;8.846;2023-06-14T09:05:25;27.90;1.00
254;DHT22;590;48.772;8.846;2023-06-14T09:07:54;27.90;1.00
254;DHT22;590;48.772;8.846;2023-06-14T09:10:25;28.10;1.00
254;DHT22;590;48.772;8.846;2023-06-14T09:12:55;28.20;1.00
254;DHT22;590;48.772;8.846;2023-06-14T09:15:24;28.40;1.00
254;DHT22;590;48.772;8.846;2023-06-14T09:17:53;28.80;1.00
254;DHT22;590;48.772;8.846;2023-06-14T09:20:24;29.00;1.00
254;DHT22;590;48.772;8.846;2023-06-14T09:22:53;28.90;1.00
254;DHT22;590;48.772;8.846;2023-06-14T09:25:21;28.60;1.00
254;DHT22;590;48.772;8.846;2023-06-14T09:28:06;28.50;1.00
254;DHT22;590;48.772;8.846;2023-06-14T09:30:38;28.30;1.00
254;DHT22;590;48.772;8.846;2023-06-14T09:33:06;28.30;1.00
254;DHT22;590;48.772;8.846;2023-06-14T09:35:35;28.30;1.00
254;DHT22;590;48.772;8.846;2023-06-14T09:38:03;28.20;1.00
254;DHT22;590;48.772;8.846;2023-06-14T09:40:34;28.30;1.00
254;DHT22;590;48.772;8.846;2023-06-14T09:43:06;28.20;1.00
254;DHT22;590;48.772;8.846;2023-06-14T09:45:35;27.90;1.00
254;DHT22;590;48.772;8.846;2023-06-14T09:48:06;27.70;1.00
254;DHT22;590;48.772;8.846;2023-06-14T09:50:35;27.80;1.00
254;DHT22;590;48.772;8.846;2023-06-14T09:53:06;27.70;1.00
254;DHT22;590;48.772;8.846;2023-06-14T09:55:35;27.60;1.00
254;DHT22;590;48.772;8.846;2023-06-14T09:58:05;27.70;1.00
254;DHT22;590;48.772;8.846;2023-06-14T10:00:36;27.70;1.00
254;DHT22;590;48.772;8.846;2023-06-14T10:03:12;27.30;1.00
254;DHT22;590;48.772;8.846;2023-06-14T10:05:42;26.50;1.00
254;DHT22;590;48.772;8.846;2023-06-14T10:08:14;26.20;1.00
254;DHT22;590;48.772;8.846;2023-06-14T10:10:43;25.80;1.00
254;DHT22;590;48.772;8.846;2023-06-14T10:13:12;25.80;1.00
254;DHT22;590;48.772;8.846;2023-06-14T10:15:48;25.80;1.00
254;DHT22;590;48.772;8.846;2023-06-14T10:18:28;25.70;1.00
254;DHT22;590;48.772;8.846;2023-06-14T10:21:05;25.50;1.00
254;DHT22;590;48.772;8.846;2023-06-14T10:23:38;25.30;1.00
254;DHT22;590;48.772;8.846;2023-06-14T10:26:08;25.50;1.00
254;DHT22;590;48.772;8.846;2023-06-14T10:28:37;25.60;1.00
254;DHT22;590;48.772;8.846;2023-06-14T10:31:06;25.70;1.00
254;DHT22;590;48.772;8.846;2023-06-14T10:33:39;26.00;1.00
254;DHT22;590;48.772;8.846;2023-06-14T10:36:25;26.20;1.00
254;DHT22;590;48.772;8.846;2023-06-14T10:38:58;26.50;1.00
254;DHT22;590;48.772;8.846;2023-06-14T10:41:28;26.90;1.00
254;DHT22;590;48.772;8.846;2023-06-14T10:44:31;27.10;1.00
254;DHT22;590;48.772;8.846;2023-06-14T10:47:00;26.90;1.00
254;DHT22;590;48.772;8.846;2023-06-14T10:49:39;26.50;1.00
254;DHT22;590;48.772;8.846;2023-06-14T10:52:10;26.50;1.00
254;DHT22;590;48.772;8.846;2023-06-14T10:55:00;26.50;1.00
254;DHT22;590;48.772;8.846;2023-06-14T10:57:28;26.60;1.00
254;DHT22;590;48.772;8.846;2023-06-14T11:00:08;26.70;1.00
254;DHT22;590;48.772;8.846;2023-06-14T11:05:53;25.60;1.00
254;DHT22;590;48.772;8.846;2023-06-14T11:08:33;25.40;1.00
254;DHT22;590;48.772;8.846;2023-06-14T11:11:07;25.60;1.00
254;DHT22;590;48.772;8.846;2023-06-14T11:13:38;25.70;1.00
254;DHT22;590;48.772;8.846;2023-06-14T11:16:13;25.60;1.00
254;DHT22;590;48.772;8.846;2023-06-14T11:18:43;25.60;1.00
254;DHT22;590;48.772;8.846;2023-06-14T11:21:15;25.80;1.00
254;DHT22;590;48.772;8.846;2023-06-14T11:23:49;25.80;1.00
254;DHT22;590;48.772;8.846;2023-06-14T11:26:24;25.70;1.00
254;DHT22;590;48.772;8.846;2023-06-14T11:28:57;25.70;1.00
254;DHT22;590;48.772;8.846;2023-06-14T11:31:26;25.90;1.00
254;DHT22;590;48.772;8.846;2023-06-14T11:33:56;26.30;1.00
254;DHT22;590;48.772;8.846;2023-06-14T11:36:28;26.60;1.00
254;DHT22;590;48.772;8.846;2023-06-14T11:38:58;26.60;1.00
254;DHT22;590;48.772;8.846;2023-06-14T11:41:32;26.70;1.00
254;DHT22;590;48.772;8.846;2023-06-14T11:44:01;26.70;1.00
254;DHT22;590;48.772;8.846;2023-06-14T11:46:29;26.70;1.00
254;DHT22;590;48.772;8.846;2023-06-14T11:48:57;26.60;1.00
254;DHT22;590;48.772;8.846;2023-06-14T11:51:31;26.60;1.00
254;DHT22;590;48.772;8.846;2023-06-14T11:54:00;26.20;1.00
254;DHT22;590;48.772;8.846;2023-06-14T11:56:29;26.00;1.00
254;DHT22;590;48.772;8.846;2023-06-14T11:58:58;26.00;1.00
254;DHT22;590;48.772;8.846;2023-06-14T12:01:27;26.20;1.00
254;DHT22;590;48.772;8.846;2023-06-14T12:03:59;26.20;1.00
254;DHT22;590;48.772;8.846;2023-06-14T12:06:28;26.30;1.00
254;DHT22;590;48.772;8.846;2023-06-14T12:09:03;26.50;1.00
254;DHT22;590;48.772;8.846;2023-06-14T12:11:34;26.50;1.00
254;DHT22;590;48.772;8.846;2023-06-14T12:14:03;26.50;1.00
254;DHT22;590;48.772;8.846;2023-06-14T12:16:33;26.50;1.00
254;DHT22;590;48.772;8.846;2023-06-14T12:19:08;26.50;1.00
254;DHT22;590;48.772;8.846;2023-06-14T12:21:38;26.60;1.00
254;DHT22;590;48.772;8.846;2023-06-14T12:24:09;26.40;1.00
254;DHT22;590;48.772;8.846;2023-06-14T12:26:40;26.10;1.00
254;DHT22;590;48.772;8.846;2023-06-14T12:29:08;26.00;1.00
254;DHT22;590;48.772;8.846;2023-06-14T12:31:38;26.30;1.00
254;DHT22;590;48.772;8.846;2023-06-14T12:34:07;26.60;1.00
254;DHT22;590;48.772;8.846;2023-06-14T12:36:35;26.60;1.00
254;DHT22;590;48.772;8.846;2023-06-14T12:39:09;26.60;1.00
254;DHT22;590;48.772;8.846;2023-06-14T12:41:37;26.50;1.00
254;DHT22;590;48.772;8.846;2023-06-14T12:44:08;26.10;1.00
254;DHT22;590;48.772;8.846;2023-06-14T12:46:36;26.10;1.00
254;DHT22;590;48.772;8.846;2023-06-14T12:49:07;26.00;1.00
254;DHT22;590;48.772;8.846;2023-06-14T12:51:36;25.90;1.00
254;DHT22;590;48.772;8.846;2023-06-14T12:54:04;25.80;1.00
254;DHT22;590;48.772;8.846;2023-06-14T12:56:33;25.70;1.00
254;DHT22;590;48.772;8.846;2023-06-14T12:59:01;25.70;1.00
254;DHT22;590;48.772;8.846;2023-06-14T13:01:29;25.70;1.00
254;DHT22;590;48.772;8.846;2023-06-14T13:03:57;25.60;1.00
254;DHT22;590;48.772;8.846;2023-06-14T13:06:25;25.50;1.00
254;DHT22;590;48.772;8.846;2023-06-14T13:08:54;25.50;1.00
254;DHT22;590;48.772;8.846;2023-06-14T13:11:24;25.50;1.00
254;DHT22;590;48.772;8.846;2023-06-14T13:13:54;25.50;1.00
254;DHT22;590;48.772;8.846;2023-06-14T13:16:22;25.40;1.00
254;DHT22;590;48.772;8.846;2023-06-14T13:18:50;25.40;1.00
254;DHT22;590;48.772;8.846;2023-06-14T13:21:18;25.50;1.00
254;DHT22;590;48.772;8.846;2023-06-14T13:23:46;25.60;1.00
254;DHT22;590;48.772;8.846;2023-06-14T13:26:14;25.80;1.00
254;DHT22;590;48.772;8.846;2023-06-14T13:28:42;25.70;1.00
254;DHT22;590;48.772;8.846;2023-06-14T13:31:11;25.60;1.00
254;DHT22;590;48.772;8.846;2023-06-14T13:33:39;25.50;1.00
254;DHT22;590;48.772;8.846;2023-06-14T13:36:07;25.40;1.00
254;DHT22;590;48.772;8.846;2023-06-14T13:38:35;25.50;1.00
254;DHT22;590;48.772;8.846;2023-06-14T13:41:03;25.70;1.00
254;DHT22;590;48.772;8.846;2023-06-14T13:43:31;25.70;1.00
254;DHT22;590;48.772;8.846;2023-06-14T13:46:00;25.60;1.00
254;DHT22;590;48.772;8.846;2023-06-14T13:48:29;25.50;1.00
254;DHT22;590;48.772;8.846;2023-06-14T13:51:00;25.40;1.00
254;DHT22;590;48.772;8.846;2023-06-14T13:53:30;25.20;1.00
254;DHT22;590;48.772;8.846;2023-06-14T13:55:58;25.20;1.00
254;DHT22;590;48.772;8.846;2023-06-14T13:58:26;25.10;1.00
254;DHT22;590;48.772;8.846;2023-06-14T14:00:56;25.10;1.00
254;DHT22;590;48.772;8.846;2023-06-14T14:03:26;25.10;1.00
254;DHT22;590;48.772;8.846;2023-06-14T14:05:56;25.10;1.00
254;DHT22;590;48.772;8.846;2023-06-14T14:08:24;25.10;1.00
254;DHT22;590;48.772;8.846;2023-06-14T14:10:52;25.20;1.00
254;DHT22;590;48.772;8.846;2023-06-14T14:13:21;25.20;1.00
254;DHT22;590;48.772;8.846;2023-06-14T14:15:49;25.20;1.00
254;DHT22;590;48.772;8.846;2023-06-14T14:18:18;25.20;1.00
254;DHT22;590;48.772;8.846;2023-06-14T14:20:48;25.20;1.00
254;DHT22;590;48.772;8.846;2023-06-14T14:23:17;25.20;1.00
254;DHT22;590;48.772;8.846;2023-06-14T14:25:46;25.30;1.00
254;DHT22;590;48.772;8.846;2023-06-14T14:28:14;25.30;1.00
254;DHT22;590;48.772;8.846;2023-06-14T14:30:45;25.40;1.00
254;DHT22;590;48.772;8.846;2023-06-14T14:33:14;25.40;1.00
254;DHT22;590;48.772;8.846;2023-06-14T14:35:44;25.30;1.00
254;DHT22;590;48.772;8.846;2023-06-14T14:38:12;25.30;1.00
254;DHT22;590;48.772;8.846;2023-06-14T14:40:42;25.30;1.00
254;DHT22;590;48.772;8.846;2023-06-14T14:43:10;25.20;1.00
254;DHT22;590;48.772;8.846;2023-06-14T14:45:38;25.20;1.00
254;DHT22;590;48.772;8.846;2023-06-14T14:48:06;25.10;1.00
254;DHT22;590;48.772;8.846;2023-06-14T14:50:35;25.00;1.00
254;DHT22;590;48.772;8.846;2023-06-14T14:53:03;24.90;1.00
254;DHT22;590;48.772;8.846;2023-06-14T14:55:31;24.80;1.00
254;DHT22;590;48.772;8.846;2023-06-14T14:58:02;24.80;1.00
254;DHT22;590;48.772;8.846;2023-06-14T15:00:31;24.80;1.00
254;DHT22;590;48.772;8.846;2023-06-14T15:02:59;24.80;1.00
254;DHT22;590;48.772;8.846;2023-06-14T15:05:27;24.70;1.00
254;DHT22;590;48.772;8.846;2023-06-14T15:07:55;24.70;1.00
254;DHT22;590;48.772;8.846;2023-06-14T15:10:23;24.80;1.00
254;DHT22;590;48.772;8.846;2023-06-14T15:12:51;24.70;1.00
254;DHT22;590;48.772;8.846;2023-06-14T15:15:22;24.60;1.00
254;DHT22;590;48.772;8.846;2023-06-14T15:17:50;24.50;1.00
254;DHT22;590;48.772;8.846;2023-06-14T15:20:18;24.40;1.00
254;DHT22;590;48.772;8.846;2023-06-14T15:22:46;24.40;1.00
254;DHT22;590;48.772;8.846;2023-06-14T15:25:16;24.40;1.00
254;DHT22;590;48.772;8.846;2023-06-14T15:27:45;24.30;1.00
254;DHT22;590;48.772;8.846;2023-06-14T15:30:13;24.20;1.00
254;DHT22;590;48.772;8.846;2023-06-14T15:32:43;24.10;1.00
254;DHT22;590;48.772;8.846;2023-06-14T15:35:11;24.10;1.00
254;DHT22;590;48.772;8.846;2023-06-14T15:37:39;24.10;1.00
254;DHT22;590;48.772;8.846;2023-06-14T15:40:08;24.20;1.00
254;DHT22;590;48.772;8.846;2023-06-14T15:42:36;24.10;1.00
254;DHT22;590;48.772;8.846;2023-06-14T15:45:05;24.10;1.00
254;DHT22;590;48.772;8.846;2023-06-14T15:47:33;24.10;1.00
254;DHT22;590;48.772;8.846;2023-06-14T15:50:03;24.20;1.00
254;DHT22;590;48.772;8.846;2023-06-14T15:52:34;24.10;1.00
254;DHT22;590;48.772;8.846;2023-06-14T15:55:03;24.10;1.00
254;DHT22;590;48.772;8.846;2023-06-14T15:57:31;24.00;1.00
254;DHT22;590;48.772;8.846;2023-06-14T15:59:59;24.00;1.00
254;DHT22;590;48.772;8.846;2023-06-14T16:02:27;24.00;1.00
254;DHT22;590;48.772;8.846;2023-06-14T16:04:55;24.10;1.00
254;DHT22;590;48.772;8.846;2023-06-14T16:07:25;24.10;1.00
254;DHT22;590;48.772;8.846;2023-06-14T16:09:53;24.00;1.00
254;DHT22;590;48.772;8.846;2023-06-14T16:12:21;24.00;1.00
254;DHT22;590;48.772;8.846;2023-06-14T16:14:49;23.90;1.00
254;DHT22;590;48.772;8.846;2023-06-14T16:17:17;23.90;1.00
254;DHT22;590;48.772;8.846;2023-06-14T16:19:45;23.80;1.00
254;DHT22;590;48.772;8.846;2023-06-14T16:22:13;23.80;1.00
254;DHT22;590;48.772;8.846;2023-06-14T16:24:42;23.80;1.00
254;DHT22;590;48.772;8.846;2023-06-14T16:27:10;23.80;1.00
254;DHT22;590;48.772;8.846;2023-06-14T16:29:40;23.70;1.00
254;DHT22;590;48.772;8.846;2023-06-14T16:32:08;23.70;1.00
254;DHT22;590;48.772;8.846;2023-06-14T16:34:36;23.70;1.00
254;DHT22;590;48.772;8.846;2023-06-14T16:37:04;23.70;1.00
254;DHT22;590;48.772;8.846;2023-06-14T16:39:33;23.70;1.00
254;DHT22;590;48.772;8.846;2023-06-14T16:42:02;23.70;1.00
254;DHT22;590;48.772;8.846;2023-06-14T16:44:31;23.70;1.00
254;DHT22;590;48.772;8.846;2023-06-14T16:46:59;23.60;1.00
254;DHT22;590;48.772;8.846;2023-06-14T16:49:28;23.60;1.00
254;DHT22;590;48.772;8.846;2023-06-14T16:51:56;23.70;1.00
254;DHT22;590;48.772;8.846;2023-06-14T16:54:24;23.70;1.00
254;DHT22;590;48.772;8.846;2023-06-14T16:56:52;23.70;1.00
254;DHT22;590;48.772;8.846;2023-06-14T16:59:22;23.60;1.00
254;DHT22;590;48.772;8.846;2023-06-14T17:01:50;23.50;1.00
254;DHT22;590;48.772;8.846;2023-06-14T17:04:19;23.50;1.00
254;DHT22;590;48.772;8.846;2023-06-14T17:06:47;23.50;1.00